Time;durP1;ratioP1;P1;durP2;ratioP2;P2;SDS_P1;SDS_P2;PMS_P1;PMS_P2;Temp;Humidity;BMP_temperature;BMP_pressure;BME280_temperature;BME280_humidity;BME280_pressure;Samples;Min_cycle;Max_cycle;Signal;HPM_P1;HPM_P2
2023/08/26 00:02:11;;;;;;;9.93;7.47;;;16.90;99.90;;;;;;5076549;28;20127;-61
2023/08/26 00:04:36;;;;;;;8.95;7.22;;;16.80;99.90;;;;;;5065242;28;20115;-60
2023/08/26 00:07:02;;;;;;;11.23;7.10;;;16.80;99.90;;;;;;5081501;28;20074;-61
2023/08/26 00:09:28;;;;;;;7.97;6.80;;;16.80;99.90;;;;;;5063885;28;20040;-61
2023/08/26 00:11:54;;;;;;;10.38;7.55;;;16.70;99.90;;;;;;5070213;28;20046;-60
2023/08/26 00:14:19;;;;;;;12.75;7.07;;;16.70;99.90;;;;;;5081373;28;20504;-58
2023/08/26 00:16:45;;;;;;;7.65;6.82;;;16.60;99.90;;;;;;5080595;28;20032;-61
2023/08/26 00:19:11;;;;;;;8.85;6.95;;;16.60;99.90;;;;;;5063795;28;20036;-61
2023/08/26 00:21:38;;;;;;;7.70;6.15;;;16.60;99.90;;;;;;5064676;28;20052;-61
2023/08/26 00:24:04;;;;;;;10.13;7.05;;;16.50;99.90;;;;;;5070411;28;20032;-60
2023/08/26 00:26:30;;;;;;;9.63;7.22;;;16.50;99.90;;;;;;5082464;28;20100;-61
2023/08/26 00:28:56;;;;;;;7.40;6.30;;;16.50;99.90;;;;;;5083680;28;20403;-61
2023/08/26 00:31:25;;;;;;;10.13;7.15;;;16.50;99.90;;;;;;5070435;28;20372;-61
2023/08/26 00:33:50;;;;;;;8.55;6.32;;;16.50;99.90;;;;;;5047664;28;20117;-62
2023/08/26 00:36:16;;;;;;;7.68;5.30;;;16.50;99.90;;;;;;5075339;28;20040;-60
2023/08/26 00:38:42;;;;;;;10.73;6.65;;;16.50;99.90;;;;;;5075286;28;20081;-62
2023/08/26 00:41:08;;;;;;;8.73;6.90;;;16.50;99.90;;;;;;5080160;28;20091;-60
2023/08/26 00:43:37;;;;;;;8.88;6.57;;;16.50;99.90;;;;;;5064851;28;20079;-62
2023/08/26 00:46:03;;;;;;;7.78;6.03;;;16.50;99.90;;;;;;5068241;28;20564;-61
2023/08/26 00:48:29;;;;;;;6.72;5.97;;;16.50;99.90;;;;;;5068530;28;20040;-61
2023/08/26 00:50:55;;;;;;;8.18;6.20;;;16.40;99.90;;;;;;5086665;28;20769;-61
2023/08/26 00:53:22;;;;;;;6.65;5.05;;;16.40;99.90;;;;;;5087264;28;20040;-61
2023/08/26 00:55:49;;;;;;;7.55;5.78;;;16.30;99.90;;;;;;5044987;28;20035;-60
2023/08/26 00:58:16;;;;;;;9.38;6.03;;;16.30;99.90;;;;;;5065023;28;20721;-61
2023/08/26 01:00:43;;;;;;;8.10;5.93;;;16.30;99.90;;;;;;5081534;28;20125;-59
2023/08/26 01:03:09;;;;;;;6.40;5.28;;;16.30;99.90;;;;;;5068555;28;20036;-62
2023/08/26 01:05:35;;;;;;;9.20;4.88;;;16.20;99.90;;;;;;5067371;28;23163;-60
2023/08/26 01:08:05;;;;;;;8.45;5.15;;;16.30;99.90;;;;;;5066914;28;20059;-61
2023/08/26 01:11:03;;;;;;;8.15;5.85;;;16.30;99.90;;;;;;5067584;28;20131;-61
2023/08/26 01:13:37;;;;;;;7.57;5.35;;;16.20;99.90;;;;;;5060634;28;20040;-61
2023/08/26 01:16:04;;;;;;;7.57;4.95;;;16.20;99.90;;;;;;5081918;28;20499;-62
2023/08/26 01:18:30;;;;;;;8.88;4.90;;;16.10;99.90;;;;;;5082097;28;20098;-62
2023/08/26 01:20:57;;;;;;;6.07;4.80;;;16.10;99.90;;;;;;5081358;28;20068;-61
2023/08/26 01:23:42;;;;;;;9.27;5.65;;;16.00;99.90;;;;;;5081889;28;20032;-59
2023/08/26 01:26:08;;;;;;;8.00;4.70;;;16.00;99.90;;;;;;5066541;28;20109;-61
2023/08/26 01:28:34;;;;;;;7.18;5.05;;;16.00;99.90;;;;;;5069484;28;20074;-62
2023/08/26 01:31:07;;;;;;;10.07;5.43;;;15.90;99.90;;;;;;5086517;28;20043;-61
2023/08/26 01:33:39;;;;;;;6.07;4.80;;;15.90;99.90;;;;;;5048961;28;20039;-60
2023/08/26 01:36:10;;;;;;;7.28;4.88;;;15.80;99.90;;;;;;5058769;28;20044;-60
2023/08/26 01:38:37;;;;;;;5.68;5.00;;;15.70;99.90;;;;;;5061524;28;20826;-61
2023/08/26 01:41:05;;;;;;;6.53;4.60;;;15.60;99.90;;;;;;5061011;28;20028;-59
2023/08/26 01:43:33;;;;;;;6.90;4.20;;;15.60;99.90;;;;;;5083460;28;20044;-62
2023/08/26 01:45:59;;;;;;;5.28;3.45;;;15.50;99.90;;;;;;5065667;28;20036;-62
2023/08/26 01:48:25;;;;;;;8.13;3.85;;;15.50;99.90;;;;;;5050414;28;20044;-58
2023/08/26 01:50:50;;;;;;;5.30;4.28;;;15.40;99.90;;;;;;5070466;28;20128;-62
2023/08/26 01:53:16;;;;;;;7.32;4.55;;;15.40;99.90;;;;;;5079523;28;20044;-61
2023/08/26 01:55:42;;;;;;;6.53;4.80;;;15.30;99.90;;;;;;5067023;28;20036;-61
2023/08/26 01:58:07;;;;;;;8.32;3.78;;;15.30;99.90;;;;;;5063206;28;20565;-60
2023/08/26 02:00:33;;;;;;;7.70;4.20;;;15.20;99.90;;;;;;5083041;28;20036;-61
2023/08/26 02:02:59;;;;;;;7.07;3.97;;;15.20;99.90;;;;;;5080320;28;20077;-61
2023/08/26 02:05:24;;;;;;;8.98;4.00;;;15.10;99.90;;;;;;5065036;28;20032;-61
2023/08/26 02:07:50;;;;;;;6.97;4.50;;;15.00;99.90;;;;;;5078148;28;20039;-62
2023/08/26 02:10:16;;;;;;;9.13;4.47;;;15.00;99.90;;;;;;5088107;28;20036;-61
2023/08/26 02:12:41;;;;;;;8.23;3.70;;;15.00;99.90;;;;;;5060896;28;20044;-61
2023/08/26 02:15:08;;;;;;;5.18;3.50;;;15.00;99.90;;;;;;5063045;28;20078;-61
2023/08/26 02:17:34;;;;;;;8.02;4.18;;;14.90;99.90;;;;;;5059815;28;20078;-61
2023/08/26 02:19:59;;;;;;;6.28;4.00;;;14.80;99.90;;;;;;5065064;28;20114;-60
2023/08/26 02:22:25;;;;;;;5.82;4.20;;;14.80;99.90;;;;;;5047682;28;20479;-60
2023/08/26 02:24:51;;;;;;;7.32;3.88;;;14.80;99.90;;;;;;5064252;28;20044;-61
2023/08/26 02:27:17;;;;;;;7.22;3.70;;;14.70;99.90;;;;;;5079855;28;20048;-61
2023/08/26 02:29:42;;;;;;;7.25;4.50;;;14.70;99.90;;;;;;5064462;28;20356;-61
2023/08/26 02:32:08;;;;;;;6.65;4.00;;;14.70;99.90;;;;;;5048159;28;20044;-61
2023/08/26 02:34:34;;;;;;;6.18;3.72;;;14.70;99.90;;;;;;5063658;28;20527;-60
2023/08/26 02:36:59;;;;;;;5.45;3.72;;;14.70;99.90;;;;;;5065378;28;20044;-61
2023/08/26 02:39:25;;;;;;;6.93;3.90;;;14.60;99.90;;;;;;5086893;28;20460;-61
2023/08/26 02:41:51;;;;;;;9.90;4.00;;;14.60;99.90;;;;;;5085184;28;20040;-61
2023/08/26 02:44:16;;;;;;;6.75;3.55;;;14.50;99.90;;;;;;5046895;28;20105;-60
2023/08/26 02:46:42;;;;;;;4.68;3.33;;;14.50;99.90;;;;;;5050740;28;20495;-62
2023/08/26 02:49:08;;;;;;;6.40;3.97;;;14.50;99.90;;;;;;5048272;28;20040;-61
2023/08/26 02:51:33;;;;;;;5.07;3.28;;;14.50;99.90;;;;;;5059964;28;20444;-62
2023/08/26 02:53:59;;;;;;;7.53;4.07;;;14.40;99.90;;;;;;5062681;28;20040;-61
2023/08/26 02:56:25;;;;;;;5.93;3.80;;;14.40;99.90;;;;;;5060762;28;20035;-60
2023/08/26 02:58:51;;;;;;;10.18;4.95;;;14.40;99.90;;;;;;5060706;28;20507;-61
2023/08/26 03:01:17;;;;;;;8.10;4.18;;;14.30;99.90;;;;;;5080594;28;20078;-60
2023/08/26 03:03:43;;;;;;;7.97;3.88;;;14.30;99.90;;;;;;5062326;28;20550;-61
2023/08/26 03:06:08;;;;;;;6.93;4.70;;;14.30;99.90;;;;;;5057904;28;20119;-62
2023/08/26 03:08:34;;;;;;;4.43;3.72;;;14.30;99.90;;;;;;5059016;28;20040;-62
2023/08/26 03:11:02;;;;;;;5.85;3.92;;;14.20;99.90;;;;;;5078101;28;20040;-61
2023/08/26 03:13:28;;;;;;;5.72;4.07;;;14.30;99.90;;;;;;5045044;28;20039;-60
2023/08/26 03:15:54;;;;;;;6.88;4.32;;;14.20;99.90;;;;;;5082440;28;20040;-61
2023/08/26 03:18:20;;;;;;;5.63;4.40;;;14.20;99.90;;;;;;5062900;28;20124;-62
2023/08/26 03:20:45;;;;;;;5.68;4.50;;;14.20;99.90;;;;;;5063957;28;20063;-61
2023/08/26 03:23:11;;;;;;;8.50;4.72;;;14.10;99.90;;;;;;5080917;28;20036;-61
2023/08/26 03:25:40;;;;;;;6.43;4.63;;;14.10;99.90;;;;;;5046249;28;20069;-61
2023/08/26 03:28:10;;;;;;;5.05;4.18;;;14.10;99.90;;;;;;5064763;28;20495;-60
2023/08/26 03:30:36;;;;;;;9.25;4.65;;;14.10;99.90;;;;;;5062803;28;20032;-61
2023/08/26 03:33:02;;;;;;;5.78;4.53;;;14.10;99.90;;;;;;5066144;28;20127;-61
2023/08/26 03:35:28;;;;;;;6.05;5.45;;;14.10;99.90;;;;;;5058051;28;20072;-61
2023/08/26 03:37:54;;;;;;;8.32;4.40;;;14.10;99.90;;;;;;5042784;28;20669;-61
2023/08/26 03:40:23;;;;;;;8.30;5.70;;;14.10;99.90;;;;;;5082574;28;20043;-61
2023/08/26 03:42:51;;;;;;;8.13;5.68;;;14.20;99.90;;;;;;5084358;28;20055;-61
2023/08/26 03:45:17;;;;;;;8.10;5.75;;;14.20;99.90;;;;;;5066615;28;20486;-61
2023/08/26 03:47:43;;;;;;;7.95;5.45;;;14.20;99.90;;;;;;5062126;28;20068;-59
2023/08/26 03:50:09;;;;;;;6.63;5.93;;;14.20;99.90;;;;;;5064934;28;20040;-60
2023/08/26 03:52:35;;;;;;;6.90;5.43;;;14.30;99.90;;;;;;5066409;28;20523;-61
2023/08/26 03:55:02;;;;;;;8.13;6.82;;;14.30;99.90;;;;;;5084372;28;20040;-61
2023/08/26 03:57:28;;;;;;;6.47;5.65;;;14.40;99.90;;;;;;5085465;28;20488;-60
2023/08/26 03:59:53;;;;;;;8.40;6.72;;;14.40;99.90;;;;;;5057400;28;20048;-61
2023/08/26 04:02:19;;;;;;;7.80;5.55;;;14.40;99.90;;;;;;5064521;28;20044;-62
2023/08/26 04:04:45;;;;;;;8.85;6.25;;;14.50;99.90;;;;;;5059968;28;20102;-61
2023/08/26 04:07:11;;;;;;;6.97;6.25;;;14.50;99.90;;;;;;5059460;28;20107;-61
2023/08/26 04:09:36;;;;;;;7.05;5.88;;;14.60;99.90;;;;;;5035004;28;20032;-60
2023/08/26 04:12:03;;;;;;;8.13;6.50;;;14.60;99.90;;;;;;5061077;28;20687;-60
2023/08/26 04:14:28;;;;;;;9.02;6.80;;;14.70;99.90;;;;;;5063221;28;20130;-61
2023/08/26 04:16:54;;;;;;;9.77;6.60;;;14.70;99.90;;;;;;5073608;28;20038;-61
2023/08/26 04:19:20;;;;;;;8.38;6.68;;;14.70;99.90;;;;;;5058016;28;20060;-62
2023/08/26 04:21:46;;;;;;;7.70;6.15;;;14.70;99.90;;;;;;5058918;28;20044;-60
2023/08/26 04:24:12;;;;;;;7.18;6.05;;;14.70;99.90;;;;;;5059619;28;20040;-61
2023/08/26 04:26:38;;;;;;;6.97;5.55;;;14.70;99.90;;;;;;5046966;28;20040;-61
2023/08/26 04:29:04;;;;;;;10.35;6.20;;;14.70;99.90;;;;;;5060227;28;20039;-59
2023/08/26 04:31:30;;;;;;;9.73;7.72;;;14.70;99.90;;;;;;5043604;28;20052;-61
2023/08/26 04:33:55;;;;;;;9.20;6.65;;;14.80;99.90;;;;;;5047823;28;20047;-60
2023/08/26 04:36:21;;;;;;;7.22;6.50;;;14.80;99.90;;;;;;5083207;28;20554;-59
2023/08/26 04:38:47;;;;;;;8.55;5.93;;;14.70;99.90;;;;;;5065334;28;22051;-61
2023/08/26 04:41:13;;;;;;;9.98;7.30;;;14.70;99.90;;;;;;5081498;28;20044;-62
2023/08/26 04:43:40;;;;;;;11.43;6.93;;;14.80;99.90;;;;;;5083916;28;20146;-61
2023/08/26 04:46:06;;;;;;;6.00;5.40;;;14.80;99.90;;;;;;5045150;28;20047;-60
2023/08/26 04:48:33;;;;;;;6.00;5.30;;;14.70;99.90;;;;;;5084040;28;21889;-59
2023/08/26 04:50:59;;;;;;;10.40;6.22;;;14.70;99.90;;;;;;5061841;28;20061;-61
2023/08/26 04:53:25;;;;;;;8.05;5.40;;;14.70;99.90;;;;;;5083729;28;20039;-61
2023/08/26 04:55:51;;;;;;;10.48;6.10;;;14.80;99.90;;;;;;5063035;28;20079;-60
2023/08/26 04:58:18;;;;;;;7.00;6.30;;;14.80;99.90;;;;;;5064825;28;20468;-60
2023/08/26 05:00:45;;;;;;;9.32;6.07;;;14.80;99.90;;;;;;5061564;28;20040;-62
2023/08/26 05:03:10;;;;;;;6.95;4.95;;;14.70;99.90;;;;;;5081246;28;20048;-61
2023/08/26 05:05:42;;;;;;;8.77;6.32;;;14.70;99.90;;;;;;5078666;28;20035;-59
2023/08/26 05:08:09;;;;;;;9.43;5.78;;;14.60;99.90;;;;;;5077629;28;20116;-61
2023/08/26 05:10:36;;;;;;;6.50;5.45;;;14.70;99.90;;;;;;5066686;28;20092;-61
2023/08/26 05:13:03;;;;;;;10.05;5.65;;;14.60;99.90;;;;;;5078702;28;20040;-62
2023/08/26 05:15:29;;;;;;;7.53;5.90;;;14.70;99.90;;;;;;5077009;28;20067;-62
2023/08/26 05:17:55;;;;;;;7.55;5.95;;;14.60;99.90;;;;;;5076792;28;20097;-61
2023/08/26 05:20:20;;;;;;;6.53;5.20;;;14.70;99.90;;;;;;5063935;28;20185;-61
2023/08/26 05:22:46;;;;;;;7.97;5.00;;;14.70;99.90;;;;;;5060373;28;20052;-61
2023/08/26 05:25:12;;;;;;;8.90;6.60;;;14.70;99.90;;;;;;5065705;28;20052;-62
2023/08/26 05:27:41;;;;;;;8.63;5.13;;;14.70;99.90;;;;;;5042252;28;20055;-61
2023/08/26 05:30:07;;;;;;;5.47;4.38;;;14.70;99.90;;;;;;5081055;28;20028;-61
2023/08/26 05:32:32;;;;;;;9.30;5.25;;;14.80;99.90;;;;;;5062036;28;20044;-59
2023/08/26 05:34:58;;;;;;;8.30;5.25;;;14.80;99.90;;;;;;5076450;28;20543;-61
2023/08/26 05:37:24;;;;;;;4.32;3.85;;;14.90;99.90;;;;;;5077419;28;20047;-61
2023/08/26 05:39:50;;;;;;;7.90;5.15;;;14.90;99.90;;;;;;5078634;28;20044;-62
2023/08/26 05:42:15;;;;;;;5.22;4.68;;;15.00;99.90;;;;;;5086740;28;22568;-61
2023/08/26 05:44:41;;;;;;;11.43;5.85;;;15.00;99.90;;;;;;5065267;28;20407;-61
2023/08/26 05:47:07;;;;;;;7.53;5.35;;;15.00;99.90;;;;;;5066246;28;20040;-59
2023/08/26 05:49:32;;;;;;;5.65;4.88;;;15.00;99.90;;;;;;5079823;28;20036;-61
2023/08/26 05:51:58;;;;;;;6.45;5.18;;;15.10;99.90;;;;;;5063980;28;20115;-61
2023/08/26 05:54:25;;;;;;;6.85;5.18;;;15.10;99.90;;;;;;5065678;28;20662;-61
2023/08/26 05:56:50;;;;;;;8.95;5.38;;;15.10;99.90;;;;;;5046373;28;20043;-61
2023/08/26 05:59:16;;;;;;;8.48;5.25;;;15.10;99.90;;;;;;5085651;28;20105;-61
2023/08/26 06:01:43;;;;;;;6.20;4.93;;;15.10;99.90;;;;;;5082026;28;20040;-61
2023/08/26 06:04:08;;;;;;;7.35;5.13;;;15.20;99.90;;;;;;5050815;28;20040;-61
2023/08/26 06:06:34;;;;;;;7.57;4.75;;;15.30;99.90;;;;;;5064649;28;20042;-60
2023/08/26 06:09:00;;;;;;;7.10;4.75;;;15.30;99.90;;;;;;5064778;28;20047;-60
2023/08/26 06:11:26;;;;;;;8.10;4.40;;;15.40;99.90;;;;;;5064494;28;20036;-61
2023/08/26 06:13:52;;;;;;;8.57;3.92;;;15.50;99.90;;;;;;5048190;28;20097;-61
2023/08/26 06:16:20;;;;;;;6.80;4.63;;;15.50;99.90;;;;;;5076532;28;20044;-61
2023/08/26 06:18:49;;;;;;;6.22;3.78;;;15.60;99.90;;;;;;5066195;28;20737;-60
2023/08/26 06:21:15;;;;;;;6.95;3.72;;;15.60;99.90;;;;;;5064619;28;20426;-60
2023/08/26 06:23:41;;;;;;;4.85;3.63;;;15.60;99.90;;;;;;5048831;28;20696;-60
2023/08/26 06:26:06;;;;;;;4.97;2.92;;;15.60;99.90;;;;;;5081759;28;20119;-61
2023/08/26 06:28:32;;;;;;;4.70;3.05;;;15.70;99.90;;;;;;5062876;28;20040;-61
2023/08/26 06:30:59;;;;;;;6.32;3.00;;;15.70;99.90;;;;;;5040967;28;20106;-61
2023/08/26 06:33:25;;;;;;;4.43;2.47;;;15.70;99.90;;;;;;5063693;28;20772;-61
2023/08/26 06:35:51;;;;;;;5.22;2.72;;;15.70;99.90;;;;;;5078505;28;20063;-60
2023/08/26 06:38:17;;;;;;;4.57;2.72;;;15.80;99.90;;;;;;5065709;28;20035;-61
2023/08/26 06:40:43;;;;;;;5.28;2.85;;;15.80;99.90;;;;;;5077790;28;20423;-61
2023/08/26 06:43:09;;;;;;;5.95;3.83;;;15.80;99.90;;;;;;5055409;28;20118;-61
2023/08/26 06:45:35;;;;;;;6.22;2.90;;;15.90;99.90;;;;;;5078528;28;20123;-62
2023/08/26 06:48:00;;;;;;;7.03;3.13;;;15.90;99.90;;;;;;5056205;28;20049;-61
2023/08/26 06:50:26;;;;;;;7.75;3.47;;;15.90;99.90;;;;;;5084999;28;20119;-62
2023/08/26 06:52:52;;;;;;;6.15;4.18;;;15.90;99.90;;;;;;5063417;28;20040;-63
2023/08/26 06:55:18;;;;;;;5.50;4.03;;;15.90;99.90;;;;;;5062117;28;20058;-63
2023/08/26 06:57:44;;;;;;;5.90;4.78;;;16.00;99.90;;;;;;5088303;28;20081;-62
2023/08/26 07:00:12;;;;;;;7.85;5.32;;;16.00;99.90;;;;;;5083086;28;20128;-64
2023/08/26 07:02:38;;;;;;;10.93;6.85;;;16.10;99.90;;;;;;5082247;28;20039;-63
2023/08/26 07:05:04;;;;;;;8.57;6.53;;;16.20;99.90;;;;;;5080869;28;20035;-63
2023/08/26 07:07:30;;;;;;;12.45;7.32;;;16.20;99.90;;;;;;5084854;28;20063;-62
2023/08/26 07:09:56;;;;;;;11.95;7.93;;;16.30;99.90;;;;;;5081944;28;20125;-63
2023/08/26 07:12:21;;;;;;;16.77;9.48;;;16.40;99.90;;;;;;5051367;28;20115;-62
2023/08/26 07:14:47;;;;;;;12.63;10.25;;;16.50;99.90;;;;;;5088373;28;20036;-63
2023/08/26 07:17:16;;;;;;;14.18;10.20;;;16.70;99.90;;;;;;5081755;28;20058;-63
2023/08/26 07:19:42;;;;;;;15.23;10.82;;;16.80;99.90;;;;;;5051805;28;20044;-62
2023/08/26 07:22:08;;;;;;;14.02;10.80;;;16.90;99.90;;;;;;5081284;28;20028;-62
2023/08/26 07:24:34;;;;;;;14.52;11.27;;;17.00;99.90;;;;;;5067475;28;20039;-62
2023/08/26 07:27:00;;;;;;;15.73;12.43;;;17.10;99.90;;;;;;5077186;28;20032;-62
2023/08/26 07:29:25;;;;;;;20.90;12.85;;;17.20;99.90;;;;;;5082990;28;20063;-61
2023/08/26 07:31:51;;;;;;;12.95;11.55;;;17.20;99.90;;;;;;5069497;28;20110;-62
2023/08/26 07:34:17;;;;;;;15.63;12.07;;;17.30;99.90;;;;;;5082735;28;20031;-62
2023/08/26 07:36:43;;;;;;;16.88;13.05;;;17.50;99.90;;;;;;5028395;28;20044;-63
2023/08/26 07:39:09;;;;;;;17.65;12.50;;;17.50;99.90;;;;;;5042791;28;20040;-65
2023/08/26 07:41:35;;;;;;;15.95;12.18;;;17.60;99.90;;;;;;5062671;28;20044;-65
2023/08/26 07:44:00;;;;;;;18.95;12.88;;;17.70;99.90;;;;;;5064109;28;20193;-65
2023/08/26 07:46:26;;;;;;;18.17;12.50;;;17.90;99.90;;;;;;5060183;28;20035;-65
2023/08/26 07:48:52;;;;;;;15.90;12.25;;;18.00;99.90;;;;;;5077665;28;20464;-65
2023/08/26 07:51:18;;;;;;;14.35;11.75;;;17.90;99.90;;;;;;5046766;28;20096;-65
2023/08/26 07:53:44;;;;;;;14.25;12.48;;;18.00;99.90;;;;;;5065737;28;20043;-66
2023/08/26 07:56:10;;;;;;;14.48;11.63;;;18.10;99.90;;;;;;5063265;28;20043;-65
2023/08/26 07:58:35;;;;;;;13.40;11.55;;;18.10;99.90;;;;;;5061894;28;20036;-66
2023/08/26 08:01:01;;;;;;;13.95;11.18;;;18.20;99.90;;;;;;5044669;28;20051;-65
2023/08/26 08:03:27;;;;;;;12.82;11.50;;;18.30;99.90;;;;;;5078732;28;20103;-66
2023/08/26 08:05:53;;;;;;;15.68;12.00;;;18.40;99.90;;;;;;5056529;28;20123;-65
2023/08/26 08:08:19;;;;;;;13.88;11.20;;;18.40;99.90;;;;;;5081165;28;20043;-64
2023/08/26 08:10:44;;;;;;;11.00;8.43;;;18.30;99.90;;;;;;5089876;28;20036;-66
2023/08/26 08:13:10;;;;;;;9.73;6.40;;;18.30;99.90;;;;;;5046572;28;20134;-66
2023/08/26 08:15:36;;;;;;;10.60;6.70;;;18.20;99.90;;;;;;5055672;28;20048;-66
2023/08/26 08:18:02;;;;;;;9.70;6.57;;;18.20;99.90;;;;;;5070252;28;20046;-65
2023/08/26 08:20:30;;;;;;;7.75;5.53;;;18.20;99.90;;;;;;5063811;28;20046;-66
2023/08/26 08:22:56;;;;;;;6.78;5.35;;;18.30;99.90;;;;;;5082947;28;20056;-65
2023/08/26 08:25:22;;;;;;;9.18;5.70;;;18.50;99.90;;;;;;5035827;28;20094;-65
2023/08/26 08:27:47;;;;;;;8.27;5.00;;;18.70;99.90;;;;;;5059116;28;20479;-64
2023/08/26 08:30:13;;;;;;;6.05;4.22;;;18.80;99.90;;;;;;5082940;28;20512;-65
2023/08/26 08:32:39;;;;;;;7.05;3.63;;;19.00;99.90;;;;;;5080874;28;20039;-66
2023/08/26 08:35:06;;;;;;;6.60;3.30;;;19.00;99.90;;;;;;5060864;28;20044;-65
2023/08/26 08:37:32;;;;;;;6.68;2.20;;;18.90;99.90;;;;;;5063144;28;20044;-65
2023/08/26 08:39:59;;;;;;;2.75;1.60;;;18.90;99.90;;;;;;5080133;28;20036;-66
2023/08/26 08:42:25;;;;;;;2.60;1.48;;;18.70;99.90;;;;;;5080394;28;20123;-63
2023/08/26 08:44:51;;;;;;;4.28;1.63;;;18.60;99.90;;;;;;5046768;28;20506;-63
2023/08/26 08:47:17;;;;;;;2.72;1.20;;;18.60;99.90;;;;;;5081394;28;20093;-64
2023/08/26 08:49:43;;;;;;;3.58;1.42;;;18.60;99.90;;;;;;5062086;28;20038;-63
2023/08/26 08:52:11;;;;;;;3.38;1.67;;;18.70;99.90;;;;;;5082866;28;20028;-64
2023/08/26 08:54:37;;;;;;;2.80;1.77;;;19.00;99.90;;;;;;5063052;28;20217;-64
2023/08/26 08:57:04;;;;;;;3.47;1.50;;;19.10;99.90;;;;;;5071486;28;20040;-66
2023/08/26 08:59:34;;;;;;;4.03;1.70;;;19.30;99.90;;;;;;5072585;28;20051;-62
2023/08/26 09:02:00;;;;;;;3.63;1.30;;;19.40;99.90;;;;;;5065073;28;20097;-64
2023/08/26 09:04:26;;;;;;;3.00;1.52;;;19.60;99.90;;;;;;5062643;28;20063;-64
2023/08/26 09:06:53;;;;;;;2.38;1.20;;;19.70;99.90;;;;;;5090634;28;20413;-64
2023/08/26 09:09:20;;;;;;;1.85;1.08;;;19.70;99.90;;;;;;5089904;28;20043;-63
2023/08/26 09:11:47;;;;;;;2.22;1.20;;;19.80;99.90;;;;;;5064007;28;20067;-63
2023/08/26 09:14:13;;;;;;;4.15;1.50;;;19.80;99.90;;;;;;5073343;28;20031;-64
2023/08/26 09:16:41;;;;;;;2.47;1.40;;;19.90;99.90;;;;;;5071671;28;20048;-63
2023/08/26 09:19:14;;;;;;;3.70;1.08;;;20.00;99.90;;;;;;5071313;28;20037;-63
2023/08/26 09:21:44;;;;;;;6.35;1.40;;;20.00;99.90;;;;;;5058628;28;20135;-63
2023/08/26 09:24:17;;;;;;;2.95;1.23;;;19.90;99.90;;;;;;5089868;28;20035;-62
2023/08/26 09:26:47;;;;;;;6.93;2.05;;;19.80;99.90;;;;;;5083629;28;20048;-62
2023/08/26 09:29:21;;;;;;;4.10;1.33;;;19.60;99.90;;;;;;5090740;28;20040;-64
2023/08/26 09:31:47;;;;;;;4.28;1.70;;;19.50;99.90;;;;;;5086065;28;20040;-63
2023/08/26 09:34:24;;;;;;;2.90;1.60;;;19.40;99.90;;;;;;5048139;28;20044;-62
2023/08/26 09:36:50;;;;;;;3.13;1.40;;;19.20;99.90;;;;;;5088820;28;20484;-63
2023/08/26 09:39:17;;;;;;;6.00;2.92;;;19.00;99.90;;;;;;5073507;28;20047;-61
2023/08/26 09:41:44;;;;;;;4.65;1.60;;;18.90;99.90;;;;;;5090340;28;22546;-62
2023/08/26 09:44:10;;;;;;;5.13;1.77;;;18.90;99.90;;;;;;5090806;28;20517;-62
2023/08/26 09:46:36;;;;;;;3.53;1.60;;;18.80;99.90;;;;;;5045536;28;20036;-63
2023/08/26 09:49:03;;;;;;;5.55;1.70;;;18.80;99.90;;;;;;5075361;28;20042;-62
2023/08/26 09:51:30;;;;;;;5.70;2.30;;;18.80;99.90;;;;;;5080363;28;20175;-61
2023/08/26 09:53:57;;;;;;;5.88;2.92;;;18.80;99.90;;;;;;5048643;28;20122;-62
2023/08/26 09:56:25;;;;;;;5.35;3.67;;;18.90;99.90;;;;;;5063764;28;20044;-64
2023/08/26 09:58:52;;;;;;;5.95;4.78;;;18.90;99.90;;;;;;5062957;28;20095;-63
2023/08/26 10:01:20;;;;;;;6.95;4.60;;;18.90;99.90;;;;;;5079081;28;20491;-64
2023/08/26 10:03:53;;;;;;;7.57;5.20;;;18.90;99.90;;;;;;5081515;28;20036;-62
2023/08/26 10:06:23;;;;;;;9.05;5.50;;;18.90;99.90;;;;;;5083692;28;20067;-62
2023/08/26 10:08:55;;;;;;;9.32;5.50;;;18.90;99.90;;;;;;5048054;28;20044;-63
2023/08/26 10:11:22;;;;;;;7.60;5.57;;;18.80;99.90;;;;;;5088317;28;20089;-63
2023/08/26 10:13:51;;;;;;;6.13;4.65;;;18.80;99.90;;;;;;5082586;28;20174;-65
2023/08/26 10:16:19;;;;;;;8.82;5.18;;;18.80;99.90;;;;;;5084517;28;20067;-63
2023/08/26 10:18:56;;;;;;;7.32;4.80;;;18.70;99.90;;;;;;5080077;28;20040;-62
2023/08/26 10:21:22;;;;;;;5.65;4.03;;;18.70;99.90;;;;;;5065070;28;20032;-63
2023/08/26 10:23:49;;;;;;;5.78;3.88;;;18.60;99.90;;;;;;5061120;28;20115;-63
2023/08/26 10:26:17;;;;;;;6.38;3.97;;;18.70;99.90;;;;;;5048274;28;20032;-62
2023/08/26 10:28:44;;;;;;;6.00;3.17;;;18.70;99.90;;;;;;5064621;28;20036;-62
2023/08/26 10:31:09;;;;;;;3.33;2.17;;;18.70;99.90;;;;;;5080570;28;20056;-62
2023/08/26 10:34:10;;;;;;;2.83;2.00;;;18.60;99.90;;;;;;5060455;28;20466;-62
2023/08/26 10:36:38;;;;;;;3.22;1.73;;;18.60;99.90;;;;;;5075940;28;20047;-62
2023/08/26 10:39:04;;;;;;;2.17;1.58;;;18.70;99.90;;;;;;5083201;28;20965;-62
2023/08/26 10:41:30;;;;;;;3.38;1.85;;;18.80;99.90;;;;;;5063815;28;20051;-62
2023/08/26 10:43:58;;;;;;;2.90;1.80;;;19.00;99.90;;;;;;5063658;28;20047;-62
2023/08/26 10:46:31;;;;;;;2.92;1.67;;;19.10;99.90;;;;;;5077621;28;20056;-62
2023/08/26 10:48:59;;;;;;;3.75;1.52;;;19.20;99.90;;;;;;5075796;28;20044;-64
2023/08/26 10:51:25;;;;;;;3.92;2.13;;;19.50;99.90;;;;;;5064093;28;20093;-62
2023/08/26 10:53:51;;;;;;;3.38;1.90;;;19.60;99.90;;;;;;5063265;28;20581;-62
2023/08/26 10:56:19;;;;;;;3.75;2.17;;;19.60;99.90;;;;;;5085086;28;20116;-62
2023/08/26 10:58:49;;;;;;;3.10;1.67;;;19.60;99.90;;;;;;5078546;28;20477;-63
2023/08/26 11:01:16;;;;;;;2.30;1.70;;;19.60;99.90;;;;;;5043185;28;20054;-63
2023/08/26 11:03:46;;;;;;;3.33;1.95;;;19.60;99.90;;;;;;5056014;28;20047;-66
2023/08/26 11:06:18;;;;;;;2.97;1.77;;;19.80;99.90;;;;;;5080814;28;20063;-62
2023/08/26 11:08:53;;;;;;;3.30;2.08;;;19.90;99.90;;;;;;5059351;28;20036;-65
2023/08/26 11:11:19;;;;;;;4.75;2.47;;;20.20;99.90;;;;;;5075330;28;20037;-64
2023/08/26 11:13:46;;;;;;;4.07;2.00;;;20.30;99.90;;;;;;5080809;28;20046;-63
2023/08/26 11:16:14;;;;;;;4.95;2.15;;;20.50;99.90;;;;;;5061551;28;20047;-62
2023/08/26 11:18:40;;;;;;;5.72;2.35;;;20.40;99.90;;;;;;5080676;28;20520;-63
2023/08/26 11:21:07;;;;;;;5.35;2.25;;;20.30;99.90;;;;;;5068403;28;20138;-62
2023/08/26 11:23:33;;;;;;;4.57;1.70;;;20.60;99.90;;;;;;5084541;28;20518;-64
2023/08/26 11:25:59;;;;;;;2.55;1.50;;;20.70;99.90;;;;;;5077661;28;20043;-63
2023/08/26 11:28:27;;;;;;;4.72;1.33;;;20.70;99.90;;;;;;5078844;28;20032;-64
2023/08/26 11:30:53;;;;;;;3.42;1.40;;;20.80;99.90;;;;;;5062419;28;20035;-65
2023/08/26 11:33:20;;;;;;;5.53;1.80;;;20.80;99.90;;;;;;5077907;28;20039;-64
2023/08/26 11:35:48;;;;;;;3.40;1.58;;;20.50;99.90;;;;;;5064569;28;20550;-63
2023/08/26 11:38:15;;;;;;;3.75;1.30;;;20.50;99.90;;;;;;5080172;28;20475;-62
2023/08/26 11:40:41;;;;;;;3.35;1.30;;;20.50;99.90;;;;;;5040812;28;20537;-62
2023/08/26 11:43:12;;;;;;;2.75;1.13;;;20.40;99.90;;;;;;5067943;28;20115;-62
2023/08/26 11:45:39;;;;;;;3.53;1.02;;;20.50;99.90;;;;;;5082000;28;20032;-64
2023/08/26 11:48:06;;;;;;;3.03;1.17;;;20.40;99.90;;;;;;5059744;28;20032;-61
2023/08/26 11:50:33;;;;;;;3.55;1.25;;;20.30;99.90;;;;;;5060463;28;20048;-61
2023/08/26 11:53:03;;;;;;;5.97;1.40;;;20.30;99.90;;;;;;5081354;28;20047;-62
2023/08/26 11:55:30;;;;;;;7.63;1.50;;;20.30;99.90;;;;;;5079520;28;20036;-63
2023/08/26 11:57:57;;;;;;;3.47;1.45;;;20.30;99.90;;;;;;5080398;28;20040;-64
2023/08/26 12:00:23;;;;;;;3.88;0.90;;;20.20;99.90;;;;;;5067311;28;20043;-62
2023/08/26 12:02:51;;;;;;;2.40;0.90;;;20.20;99.90;;;;;;5077314;28;20040;-61
2023/08/26 12:05:18;;;;;;;3.08;1.05;;;20.20;99.90;;;;;;5060653;28;20123;-63
2023/08/26 12:07:44;;;;;;;2.33;1.00;;;20.10;99.90;;;;;;5043312;28;20040;-62
2023/08/26 12:10:11;;;;;;;2.65;1.08;;;20.10;99.90;;;;;;5044210;28;20089;-64
2023/08/26 12:12:38;;;;;;;2.33;0.63;;;20.00;99.90;;;;;;5079305;28;20044;-64
2023/08/26 12:15:09;;;;;;;2.33;0.90;;;20.00;99.90;;;;;;5064180;28;20395;-64
2023/08/26 12:17:49;;;;;;;4.22;1.08;;;20.00;99.90;;;;;;5073919;28;20056;-63
2023/08/26 12:20:25;;;;;;;3.28;0.85;;;20.10;99.90;;;;;;5045669;28;20526;-62
2023/08/26 12:22:53;;;;;;;2.80;0.80;;;20.10;99.90;;;;;;5055806;28;20049;-66
2023/08/26 12:25:41;;;;;;;2.65;1.08;;;20.10;99.90;;;;;;5063784;28;20052;-61
2023/08/26 12:28:28;;;;;;;5.38;1.08;;;20.10;99.90;;;;;;5081630;28;20028;-63
2023/08/26 12:30:54;;;;;;;5.22;1.20;;;20.10;99.90;;;;;;5081582;28;20042;-66
2023/08/26 12:33:20;;;;;;;6.55;1.30;;;20.30;99.90;;;;;;5077051;28;20433;-61
2023/08/26 12:35:46;;;;;;;1.50;0.90;;;20.60;99.90;;;;;;5062862;28;20052;-63
2023/08/26 12:38:12;;;;;;;3.97;0.90;;;20.70;99.90;;;;;;5059584;28;20055;-62
2023/08/26 12:40:40;;;;;;;1.83;0.85;;;20.80;99.90;;;;;;5063638;28;20044;-62
2023/08/26 12:43:06;;;;;;;1.85;0.90;;;20.70;99.90;;;;;;5072795;28;20063;-63
2023/08/26 12:45:33;;;;;;;3.40;1.00;;;20.60;99.90;;;;;;5062209;28;20040;-65